Time;durP1;ratioP1;P1;durP2;ratioP2;P2;SDS_P1;SDS_P2;PMS_P1;PMS_P2;Temp;Humidity;BMP_temperature;BMP_pressure;BME280_temperature;BME280_humidity;BME280_pressure;Samples;Min_cycle;Max_cycle;Signal;HPM_P1;HPM_P2
2023/05/19 00:00:20;;;;;;;9.00;5.40;;;6.00;99.90;;;;;;5016763;28;20229;-81
2023/05/19 00:02:47;;;;;;;10.93;6.40;;;6.00;99.90;;;;;;5011080;28;20229;-81
2023/05/19 00:05:17;;;;;;;11.10;7.37;;;6.00;99.90;;;;;;5011865;28;20919;-81
2023/05/19 00:07:45;;;;;;;14.67;8.07;;;6.00;99.90;;;;;;5008900;28;20228;-81
2023/05/19 00:10:13;;;;;;;12.10;7.63;;;6.00;99.90;;;;;;5005803;28;20287;-82
2023/05/19 00:12:40;;;;;;;12.13;7.23;;;5.90;99.90;;;;;;5005599;28;20248;-81
2023/05/19 00:15:09;;;;;;;15.80;8.60;;;5.90;99.90;;;;;;5011592;28;20225;-82
2023/05/19 00:17:37;;;;;;;13.57;7.00;;;5.90;99.90;;;;;;5014102;28;20224;-81
2023/05/19 00:20:06;;;;;;;13.63;7.27;;;5.90;99.90;;;;;;5006977;28;20221;-82
2023/05/19 00:22:35;;;;;;;16.63;7.57;;;5.90;99.90;;;;;;5015185;28;20243;-81
2023/05/19 00:25:02;;;;;;;10.33;7.37;;;5.90;99.90;;;;;;5010548;28;20217;-82
2023/05/19 00:27:29;;;;;;;17.53;8.43;;;5.90;99.90;;;;;;5012498;28;20228;-81
2023/05/19 00:29:56;;;;;;;11.10;6.43;;;5.90;99.90;;;;;;5010138;28;20224;-81
2023/05/19 00:32:22;;;;;;;12.57;6.53;;;5.90;99.90;;;;;;5004062;28;20228;-81
2023/05/19 00:34:49;;;;;;;10.30;6.23;;;5.80;99.90;;;;;;5016297;28;20227;-81
2023/05/19 00:37:17;;;;;;;9.50;6.83;;;5.80;99.90;;;;;;5013809;28;20213;-82
2023/05/19 00:39:45;;;;;;;13.37;7.07;;;5.70;99.90;;;;;;5009529;28;20236;-82
2023/05/19 00:42:12;;;;;;;11.77;6.60;;;5.70;99.90;;;;;;5013336;28;20221;-82
2023/05/19 00:44:41;;;;;;;11.47;6.03;;;5.70;99.90;;;;;;5009816;28;20225;-81
2023/05/19 00:47:08;;;;;;;11.70;5.60;;;5.70;99.90;;;;;;5002387;28;20674;-81
2023/05/19 00:49:36;;;;;;;10.50;5.30;;;5.70;99.90;;;;;;5011028;28;20236;-80
2023/05/19 00:52:05;;;;;;;9.30;5.17;;;5.70;99.90;;;;;;5011814;28;20311;-81
2023/05/19 00:54:33;;;;;;;10.23;5.10;;;5.70;99.90;;;;;;5013275;28;20328;-81
2023/05/19 00:57:03;;;;;;;8.17;4.63;;;5.70;99.90;;;;;;5008995;28;20221;-80
2023/05/19 00:59:30;;;;;;;12.57;5.40;;;5.60;99.90;;;;;;5016482;28;20692;-80
2023/05/19 01:01:57;;;;;;;9.57;4.70;;;5.60;99.90;;;;;;5009975;28;20213;-80
2023/05/19 01:04:25;;;;;;;6.37;4.00;;;5.60;99.90;;;;;;5007651;28;20241;-80
2023/05/19 01:06:53;;;;;;;9.93;4.40;;;5.60;99.90;;;;;;5006505;28;20238;-80
2023/05/19 01:09:20;;;;;;;9.13;4.47;;;5.60;99.90;;;;;;5014924;28;20702;-81
2023/05/19 01:11:47;;;;;;;7.70;3.80;;;5.60;99.90;;;;;;5008644;28;20229;-81
2023/05/19 01:14:16;;;;;;;8.47;4.17;;;5.60;99.90;;;;;;5017111;28;20227;-82
2023/05/19 01:16:47;;;;;;;9.70;3.87;;;5.60;99.90;;;;;;5015214;28;20229;-82
2023/05/19 01:19:30;;;;;;;8.50;3.70;;;5.60;99.90;;;;;;5013435;28;20757;-81
2023/05/19 01:22:22;;;;;;;6.23;3.67;;;5.60;99.90;;;;;;5013412;28;20229;-81
2023/05/19 01:25:30;;;;;;;6.07;3.47;;;5.60;99.90;;;;;;5009159;28;20280;-81
2023/05/19 01:28:23;;;;;;;8.43;3.80;;;5.60;99.90;;;;;;5021431;28;20224;-81
2023/05/19 01:30:53;;;;;;;11.73;3.80;;;5.60;99.90;;;;;;5010485;28;20229;-80
2023/05/19 01:33:22;;;;;;;8.37;3.50;;;5.60;99.90;;;;;;5013903;28;20220;-82
2023/05/19 01:35:50;;;;;;;7.60;3.67;;;5.60;99.90;;;;;;5012177;28;20234;-81
2023/05/19 01:38:20;;;;;;;8.73;3.17;;;5.60;99.90;;;;;;5015413;28;20221;-81
2023/05/19 01:40:49;;;;;;;9.27;4.03;;;5.70;99.90;;;;;;5012476;28;20229;-82
2023/05/19 01:43:18;;;;;;;5.90;3.60;;;5.70;99.90;;;;;;5017426;28;20271;-81
2023/05/19 01:45:46;;;;;;;5.60;3.33;;;5.60;99.90;;;;;;5007739;28;20224;-81
2023/05/19 01:48:15;;;;;;;8.17;3.70;;;5.70;99.90;;;;;;5011680;28;20221;-81
2023/05/19 01:50:42;;;;;;;3.93;2.77;;;5.70;99.90;;;;;;5010087;28;20300;-82
2023/05/19 01:53:09;;;;;;;6.60;3.50;;;5.70;99.90;;;;;;5007703;28;20639;-81
2023/05/19 01:55:42;;;;;;;5.73;3.60;;;5.70;99.90;;;;;;5010747;28;20249;-81
2023/05/19 01:58:18;;;;;;;6.10;3.20;;;5.70;99.90;;;;;;5023178;23;20730;-84
2023/05/19 02:00:52;;;;;;;7.10;3.63;;;5.70;99.90;;;;;;4996006;28;20600;-80
2023/05/19 02:03:33;;;;;;;7.63;3.33;;;5.80;99.90;;;;;;4999479;28;20840;-82
2023/05/19 02:06:10;;;;;;;8.07;3.87;;;5.80;99.90;;;;;;4996625;28;20707;-79
2023/05/19 02:08:42;;;;;;;9.20;3.90;;;5.80;99.90;;;;;;4983389;28;20325;-79
2023/05/19 02:11:15;;;;;;;7.37;3.53;;;5.80;99.90;;;;;;4975162;28;21606;-81
2023/05/19 02:13:45;;;;;;;9.53;3.97;;;5.80;99.90;;;;;;4980943;28;20214;-83
2023/05/19 02:16:13;;;;;;;8.53;3.60;;;5.80;99.90;;;;;;4981262;28;20263;-79
2023/05/19 02:18:44;;;;;;;6.93;3.70;;;5.90;99.90;;;;;;4979739;28;20229;-81
2023/05/19 02:21:12;;;;;;;7.73;3.97;;;5.90;99.90;;;;;;4976773;28;20691;-81
2023/05/19 02:23:40;;;;;;;7.00;3.73;;;5.90;99.90;;;;;;4980628;28;20678;-81
2023/05/19 02:26:07;;;;;;;9.13;3.60;;;5.90;99.90;;;;;;4980379;28;20226;-79
2023/05/19 02:28:35;;;;;;;8.87;3.97;;;5.90;99.90;;;;;;4975834;28;20739;-80
2023/05/19 02:31:04;;;;;;;9.43;3.80;;;6.00;99.90;;;;;;4967667;28;20732;-80
2023/05/19 02:33:31;;;;;;;5.73;3.53;;;6.00;99.90;;;;;;4975024;28;20321;-78
2023/05/19 02:35:59;;;;;;;10.20;3.90;;;6.00;99.90;;;;;;4991392;28;20215;-79
2023/05/19 02:38:25;;;;;;;9.20;4.27;;;6.00;99.90;;;;;;4974522;28;20615;-80
2023/05/19 02:40:53;;;;;;;5.83;3.90;;;6.00;99.90;;;;;;4972822;28;20226;-81
2023/05/19 02:43:19;;;;;;;6.60;4.00;;;6.10;99.90;;;;;;4974685;28;20847;-79
2023/05/19 02:45:46;;;;;;;7.20;3.83;;;6.10;99.90;;;;;;4975630;28;20220;-80
2023/05/19 02:48:13;;;;;;;8.23;4.00;;;6.10;99.90;;;;;;4973944;28;20218;-79
2023/05/19 02:50:40;;;;;;;7.10;3.53;;;6.10;99.90;;;;;;4975263;28;20242;-78
2023/05/19 02:53:08;;;;;;;9.87;3.90;;;6.20;99.90;;;;;;4977651;28;20218;-79
2023/05/19 02:55:36;;;;;;;9.50;4.10;;;6.20;99.90;;;;;;4969551;28;20713;-80
2023/05/19 02:58:03;;;;;;;9.90;4.10;;;6.20;99.90;;;;;;4972774;28;20297;-80
2023/05/19 03:00:30;;;;;;;9.60;4.20;;;6.20;99.90;;;;;;4970196;28;20824;-79
2023/05/19 03:03:01;;;;;;;6.80;3.87;;;6.20;99.90;;;;;;4979750;28;20305;-79
2023/05/19 03:05:29;;;;;;;8.37;3.53;;;6.20;99.90;;;;;;4978094;28;20313;-79
2023/05/19 03:07:55;;;;;;;5.30;3.50;;;6.20;99.90;;;;;;4971677;28;20842;-79
2023/05/19 03:10:24;;;;;;;6.87;3.50;;;6.20;99.90;;;;;;4976591;28;20222;-80
2023/05/19 03:12:50;;;;;;;6.93;4.20;;;6.20;99.90;;;;;;4974263;28;20226;-79
2023/05/19 03:15:18;;;;;;;6.10;4.20;;;6.20;99.90;;;;;;4977692;28;20219;-83
2023/05/19 03:17:45;;;;;;;5.63;3.70;;;6.20;99.90;;;;;;4971883;28;20889;-80
2023/05/19 03:20:14;;;;;;;5.20;3.47;;;6.20;99.90;;;;;;4976412;28;20222;-78
2023/05/19 03:22:41;;;;;;;7.67;4.17;;;6.20;99.90;;;;;;4988570;28;20237;-80
2023/05/19 03:25:08;;;;;;;17.33;11.23;;;6.20;99.90;;;;;;4974381;28;20229;-78
2023/05/19 03:27:36;;;;;;;11.03;7.27;;;6.20;99.90;;;;;;4973748;28;20231;-78
2023/05/19 03:30:04;;;;;;;8.53;4.63;;;6.20;99.90;;;;;;4975485;28;21087;-78
2023/05/19 03:32:32;;;;;;;7.13;3.60;;;6.20;99.90;;;;;;4973811;28;20230;-79
2023/05/19 03:34:59;;;;;;;8.63;3.57;;;6.20;99.90;;;;;;4978688;28;20305;-80
2023/05/19 03:37:27;;;;;;;7.93;4.03;;;6.20;99.90;;;;;;4975185;28;20227;-79
2023/05/19 03:39:54;;;;;;;8.63;4.30;;;6.20;99.90;;;;;;4973140;28;20306;-79
2023/05/19 03:42:21;;;;;;;9.43;4.20;;;6.20;99.90;;;;;;4971710;28;20218;-78
2023/05/19 03:44:50;;;;;;;7.23;4.13;;;6.30;99.90;;;;;;4978315;28;20336;-77
2023/05/19 03:47:17;;;;;;;11.87;4.20;;;6.30;99.90;;;;;;4972949;28;20233;-78
2023/05/19 03:49:50;;;;;;;8.23;4.37;;;6.30;99.90;;;;;;4974084;28;20269;-79
2023/05/19 03:52:37;;;;;;;11.53;3.87;;;6.30;99.90;;;;;;4970861;28;20234;-79
2023/05/19 03:55:13;;;;;;;8.93;4.30;;;6.30;99.90;;;;;;4976716;28;20830;-79
2023/05/19 03:57:42;;;;;;;11.87;4.03;;;6.40;99.90;;;;;;4977874;28;20238;-80
2023/05/19 04:00:13;;;;;;;6.90;3.60;;;6.40;99.90;;;;;;4973621;28;20971;-80
2023/05/19 04:02:40;;;;;;;10.23;3.70;;;6.40;99.90;;;;;;4973214;28;20222;-79
2023/05/19 04:05:08;;;;;;;10.03;4.20;;;6.40;99.90;;;;;;4975220;28;20251;-78
2023/05/19 04:07:35;;;;;;;9.33;4.00;;;6.40;99.90;;;;;;4978712;28;20273;-80
2023/05/19 04:10:04;;;;;;;9.37;4.00;;;6.40;99.90;;;;;;4987346;28;20232;-78
2023/05/19 04:12:31;;;;;;;7.20;3.37;;;6.50;99.90;;;;;;4978108;28;20697;-80
2023/05/19 04:14:58;;;;;;;10.40;4.37;;;6.50;99.90;;;;;;4977638;28;20237;-79
2023/05/19 04:17:27;;;;;;;7.13;3.73;;;6.50;99.90;;;;;;4970447;28;20233;-79
2023/05/19 04:19:55;;;;;;;8.20;3.60;;;6.60;99.90;;;;;;4969251;28;20910;-79
2023/05/19 04:22:22;;;;;;;9.37;3.67;;;6.60;99.90;;;;;;4971731;28;20229;-79
2023/05/19 04:24:49;;;;;;;8.77;3.87;;;6.70;99.90;;;;;;4973224;28;20230;-79
2023/05/19 04:27:17;;;;;;;5.57;3.63;;;6.80;99.90;;;;;;4982591;28;20784;-84
2023/05/19 04:29:44;;;;;;;9.50;3.73;;;6.80;99.90;;;;;;4981394;28;20245;-80
2023/05/19 04:32:16;;;;;;;8.80;3.73;;;6.90;99.90;;;;;;4983703;28;20631;-79
2023/05/19 04:34:45;;;;;;;9.63;4.27;;;7.00;99.90;;;;;;4976243;28;20225;-80
2023/05/19 04:37:15;;;;;;;7.17;3.43;;;7.10;99.90;;;;;;4982822;28;20233;-80
2023/05/19 04:39:44;;;;;;;9.53;3.93;;;7.20;99.90;;;;;;4970398;28;20296;-83
2023/05/19 04:42:12;;;;;;;7.03;3.70;;;7.20;99.90;;;;;;4978942;28;20285;-81
2023/05/19 04:44:39;;;;;;;9.97;3.73;;;7.30;99.90;;;;;;4997260;28;20291;-80
2023/05/19 04:47:07;;;;;;;10.27;4.00;;;7.40;99.90;;;;;;4979977;28;20222;-80
2023/05/19 04:49:37;;;;;;;8.43;3.83;;;7.40;99.90;;;;;;4979858;28;20324;-83
2023/05/19 04:52:09;;;;;;;6.67;3.77;;;7.50;99.90;;;;;;4993200;28;20225;-80
2023/05/19 04:54:38;;;;;;;11.27;4.13;;;7.50;99.90;;;;;;5000466;28;20228;-82
2023/05/19 04:57:06;;;;;;;7.93;3.80;;;7.60;99.90;;;;;;4975847;28;20767;-81
2023/05/19 04:59:36;;;;;;;9.30;4.13;;;7.70;99.90;;;;;;4977631;28;20218;-84
2023/05/19 05:02:06;;;;;;;7.23;3.53;;;7.80;99.90;;;;;;4981849;28;20223;-82
2023/05/19 05:04:35;;;;;;;7.10;3.50;;;7.80;99.90;;;;;;4975028;28;20234;-82
2023/05/19 05:07:02;;;;;;;8.47;4.10;;;7.90;99.90;;;;;;4983293;28;20261;-83
2023/05/19 05:09:30;;;;;;;8.43;3.63;;;8.10;99.90;;;;;;4980374;28;20237;-82
2023/05/19 05:12:01;;;;;;;6.77;3.37;;;8.10;99.90;;;;;;4973213;28;20230;-81
2023/05/19 05:14:28;;;;;;;9.53;3.70;;;8.20;99.90;;;;;;4976818;28;20802;-80
2023/05/19 05:16:56;;;;;;;7.80;3.70;;;8.20;99.90;;;;;;4975726;28;20241;-80
2023/05/19 05:19:25;;;;;;;6.23;3.20;;;8.30;99.90;;;;;;4979459;28;20696;-80
2023/05/19 05:21:52;;;;;;;7.30;3.70;;;8.40;99.90;;;;;;4976403;28;20219;-83
2023/05/19 05:24:20;;;;;;;5.30;3.30;;;8.50;99.90;;;;;;4977899;28;20292;-80
2023/05/19 05:26:53;;;;;;;10.37;3.80;;;8.60;99.90;;;;;;4977700;28;20222;-81
2023/05/19 05:29:20;;;;;;;10.60;3.30;;;8.60;99.90;;;;;;4980576;28;20221;-82
2023/05/19 05:31:47;;;;;;;9.13;3.50;;;8.70;99.90;;;;;;4979943;28;20230;-81
2023/05/19 05:34:14;;;;;;;7.60;3.53;;;8.80;99.90;;;;;;4984322;28;20315;-81
2023/05/19 05:36:42;;;;;;;6.63;3.27;;;8.90;99.90;;;;;;4976741;28;20230;-81
2023/05/19 05:39:09;;;;;;;9.27;3.53;;;9.00;99.90;;;;;;4977910;28;20380;-81
2023/05/19 05:41:37;;;;;;;7.53;3.50;;;9.10;99.90;;;;;;4985558;28;20326;-82
2023/05/19 05:44:11;;;;;;;10.50;3.30;;;9.20;99.90;;;;;;4974345;28;20279;-84
2023/05/19 05:46:40;;;;;;;8.47;3.73;;;9.30;99.90;;;;;;4981117;28;20771;-81
2023/05/19 05:49:08;;;;;;;6.97;3.10;;;9.30;99.90;;;;;;4985095;28;20317;-81
2023/05/19 05:51:35;;;;;;;8.37;3.43;;;9.40;99.90;;;;;;4983866;28;20265;-85
2023/05/19 05:54:04;;;;;;;8.97;3.20;;;9.50;99.90;;;;;;4980576;28;20233;-80
2023/05/19 05:56:36;;;;;;;5.40;2.80;;;9.60;99.90;;;;;;4985305;28;20237;-81
2023/05/19 05:59:06;;;;;;;12.50;3.20;;;9.70;99.90;;;;;;4978356;28;20245;-82
2023/05/19 06:01:34;;;;;;;7.33;3.17;;;9.70;99.90;;;;;;4970341;28;20227;-81
2023/05/19 06:04:01;;;;;;;9.17;3.07;;;9.90;99.90;;;;;;4974988;28;20214;-80
2023/05/19 06:06:29;;;;;;;6.73;2.97;;;9.90;99.90;;;;;;4984773;28;20237;-80
2023/05/19 06:08:56;;;;;;;7.47;3.07;;;10.10;99.90;;;;;;4986479;28;20219;-80
2023/05/19 06:11:24;;;;;;;8.60;3.07;;;10.20;99.90;;;;;;4983145;28;20921;-82
2023/05/19 06:13:52;;;;;;;9.00;3.40;;;10.30;99.90;;;;;;4984095;28;20301;-80
2023/05/19 06:16:37;;;;;;;6.90;2.60;;;10.40;99.90;;;;;;4983468;28;20632;-81
2023/05/19 06:19:04;;;;;;;8.50;3.10;;;10.60;99.90;;;;;;4981360;28;20903;-83
2023/05/19 06:21:31;;;;;;;8.10;2.73;;;10.70;99.90;;;;;;4982533;28;20232;-81
2023/05/19 06:23:58;;;;;;;11.87;2.70;;;10.80;99.90;;;;;;4995343;28;20309;-81
2023/05/19 06:26:26;;;;;;;8.30;3.37;;;10.90;99.90;;;;;;4983098;28;20709;-80
2023/05/19 06:28:52;;;;;;;7.87;3.17;;;11.00;99.90;;;;;;4988083;28;20233;-82
2023/05/19 06:31:20;;;;;;;10.13;3.20;;;11.10;99.90;;;;;;4979360;28;20343;-82
2023/05/19 06:33:53;;;;;;;7.03;3.27;;;11.20;99.90;;;;;;4988620;28;20312;-81
2023/05/19 06:36:21;;;;;;;8.77;3.40;;;11.40;99.90;;;;;;4982154;28;20309;-83
2023/05/19 06:38:48;;;;;;;9.20;3.23;;;11.50;99.90;;;;;;4985941;28;20219;-82
2023/05/19 06:41:15;;;;;;;6.80;3.00;;;11.70;99.90;;;;;;4985764;28;20286;-83
2023/05/19 06:43:42;;;;;;;8.13;3.23;;;11.90;99.90;;;;;;4985456;28;20237;-82
2023/05/19 06:46:13;;;;;;;8.17;3.10;;;12.20;99.90;;;;;;5001262;28;20767;-83
2023/05/19 06:48:40;;;;;;;8.07;2.70;;;12.40;99.90;;;;;;4986526;28;20232;-83
2023/05/19 06:51:09;;;;;;;10.63;3.70;;;12.50;99.90;;;;;;4984800;28;20709;-84
2023/05/19 06:53:38;;;;;;;10.47;3.10;;;12.60;99.90;;;;;;4980635;28;20303;-83
2023/05/19 06:56:08;;;;;;;8.00;2.60;;;12.80;99.90;;;;;;4977316;28;20222;-84
2023/05/19 06:58:38;;;;;;;7.40;3.00;;;13.00;99.90;;;;;;4982944;28;20281;-82
2023/05/19 07:01:05;;;;;;;8.33;3.50;;;13.20;99.80;;;;;;4977762;28;20783;-84
2023/05/19 07:03:38;;;;;;;7.97;2.47;;;13.50;99.90;;;;;;4980911;28;20234;-83
2023/05/19 07:06:05;;;;;;;6.43;2.30;;;13.80;99.80;;;;;;4988192;28;20253;-81
2023/05/19 07:08:34;;;;;;;5.40;2.25;;;14.30;99.50;;;;;;4982157;28;20233;-82
2023/05/19 07:11:02;;;;;;;7.70;2.60;;;14.90;99.20;;;;;;4977958;28;20219;-82
2023/05/19 07:13:29;;;;;;;8.30;3.03;;;15.70;98.60;;;;;;4979860;28;20431;-82
2023/05/19 07:15:57;;;;;;;6.70;2.60;;;16.40;97.40;;;;;;4984516;28;20688;-86
2023/05/19 07:18:25;;;;;;;5.57;2.63;;;17.10;96.40;;;;;;4985786;28;20242;-85
2023/05/19 07:20:52;;;;;;;5.00;2.38;;;17.70;95.00;;;;;;4982993;28;20249;-86
2023/05/19 07:23:20;;;;;;;4.97;2.47;;;18.20;93.70;;;;;;4982834;28;20225;-83
2023/05/19 07:25:49;;;;;;;6.53;2.83;;;18.60;92.90;;;;;;4976750;28;20222;-83
2023/05/19 07:28:16;;;;;;;7.00;2.28;;;18.80;91.40;;;;;;4984499;28;20222;-85
2023/05/19 07:30:42;;;;;;;5.70;2.40;;;19.10;91.20;;;;;;4981996;28;20459;-82
2023/05/19 07:33:09;;;;;;;6.00;1.92;;;19.30;90.90;;;;;;4981019;28;20305;-83
2023/05/19 07:35:36;;;;;;;5.70;2.50;;;19.60;90.80;;;;;;4983365;28;20230;-83
2023/05/19 07:38:03;;;;;;;7.53;2.42;;;20.00;90.20;;;;;;4983707;28;20222;-83
2023/05/19 07:40:29;;;;;;;6.70;2.67;;;20.40;88.70;;;;;;4978401;28;20230;-82
2023/05/19 07:42:57;;;;;;;5.45;1.80;;;20.80;87.70;;;;;;4982647;28;20218;-83
2023/05/19 07:45:24;;;;;;;9.52;2.55;;;21.30;85.30;;;;;;4979546;28;20509;-84
2023/05/19 07:47:51;;;;;;;7.38;2.45;;;21.60;82.80;;;;;;4996236;28;20644;-83
2023/05/19 07:50:18;;;;;;;7.03;2.28;;;21.80;81.90;;;;;;4987874;28;20754;-83
2023/05/19 07:52:44;;;;;;;6.22;2.47;;;22.00;79.30;;;;;;4987358;28;20589;-85
2023/05/19 07:55:12;;;;;;;13.35;2.75;;;22.00;78.40;;;;;;4979506;28;20244;-86
2023/05/19 07:57:39;;;;;;;6.32;2.40;;;21.80;76.60;;;;;;4983993;28;20305;-83
2023/05/19 08:00:10;;;;;;;8.13;2.70;;;21.80;76.80;;;;;;4982177;28;20218;-84
2023/05/19 08:02:38;;;;;;;5.68;2.17;;;21.70;76.40;;;;;;4986464;28;20712;-84
2023/05/19 08:05:06;;;;;;;6.20;2.15;;;21.70;75.80;;;;;;4982450;28;20223;-84
2023/05/19 08:07:32;;;;;;;6.95;2.40;;;21.70;75.70;;;;;;4983104;28;20233;-83
2023/05/19 08:09:59;;;;;;;6.93;2.47;;;21.80;75.40;;;;;;4980200;28;20305;-83
2023/05/19 08:12:26;;;;;;;5.28;2.05;;;21.80;74.30;;;;;;4980203;28;20224;-83
2023/05/19 08:14:52;;;;;;;6.30;2.08;;;21.80;73.10;;;;;;4988231;28;20230;-83
2023/05/19 08:17:20;;;;;;;6.50;2.13;;;21.70;73.20;;;;;;4984732;28;20229;-84
2023/05/19 08:19:47;;;;;;;5.25;2.00;;;21.70;72.20;;;;;;4989120;28;20249;-84
2023/05/19 08:22:14;;;;;;;6.68;2.30;;;21.70;73.10;;;;;;4984327;28;20704;-83
2023/05/19 08:24:42;;;;;;;5.68;1.90;;;21.80;74.10;;;;;;4986874;28;20226;-82
2023/05/19 08:27:08;;;;;;;6.43;1.98;;;22.00;73.00;;;;;;4979777;28;20250;-81
2023/05/19 08:29:35;;;;;;;4.80;2.08;;;22.30;73.00;;;;;;4987744;28;20229;-83
2023/05/19 08:32:02;;;;;;;5.07;2.17;;;22.60;71.00;;;;;;4984212;28;20779;-82
2023/05/19 08:34:31;;;;;;;5.40;2.17;;;22.80;69.70;;;;;;4984416;28;20249;-82
2023/05/19 08:36:58;;;;;;;5.57;2.25;;;22.90;69.10;;;;;;4987886;28;20264;-82
2023/05/19 08:39:26;;;;;;;5.88;2.08;;;23.10;69.20;;;;;;4984207;28;20697;-82
2023/05/19 08:41:52;;;;;;;4.50;1.85;;;23.40;69.20;;;;;;4985066;28;20227;-82
2023/05/19 08:44:19;;;;;;;5.00;1.90;;;23.70;68.70;;;;;;4984883;28;20222;-82
2023/05/19 08:46:47;;;;;;;7.15;1.90;;;24.10;68.70;;;;;;4981565;28;20233;-82
2023/05/19 08:49:18;;;;;;;10.18;5.88;;;24.50;67.70;;;;;;4980900;28;20230;-82
2023/05/19 08:51:55;;;;;;;6.85;2.55;;;24.90;65.40;;;;;;4984373;28;20218;-83
2023/05/19 08:54:29;;;;;;;4.90;1.95;;;25.20;62.30;;;;;;4982828;28;20585;-80
2023/05/19 08:56:56;;;;;;;6.35;2.08;;;25.40;60.90;;;;;;4981882;28;20227;-78
2023/05/19 08:59:22;;;;;;;5.47;2.10;;;25.40;59.80;;;;;;4987745;28;20289;-80
2023/05/19 09:01:50;;;;;;;4.35;1.60;;;25.30;59.90;;;;;;4985056;28;20234;-82
2023/05/19 09:04:17;;;;;;;7.20;2.30;;;25.20;59.20;;;;;;4985577;28;20218;-78
2023/05/19 09:06:44;;;;;;;6.68;2.28;;;25.20;59.10;;;;;;4988030;28;20234;-79
2023/05/19 09:09:12;;;;;;;6.00;2.13;;;25.10;59.30;;;;;;4988390;28;20285;-79
2023/05/19 09:11:39;;;;;;;6.22;2.38;;;25.20;58.70;;;;;;4981630;28;20225;-80
2023/05/19 09:14:05;;;;;;;6.18;2.10;;;25.30;58.90;;;;;;4986405;28;20230;-80
2023/05/19 09:16:32;;;;;;;5.80;2.00;;;25.50;58.30;;;;;;4984214;28;20231;-79
2023/05/19 09:19:00;;;;;;;3.72;1.80;;;25.60;58.00;;;;;;4988673;28;20221;-79
2023/05/19 09:21:29;;;;;;;4.72;1.95;;;25.80;58.10;;;;;;4983161;28;20613;-80
2023/05/19 09:23:56;;;;;;;3.92;1.90;;;26.00;56.50;;;;;;4972752;28;20925;-79
2023/05/19 09:26:24;;;;;;;7.85;2.05;;;26.10;56.00;;;;;;4985969;28;20568;-79
2023/05/19 09:28:51;;;;;;;7.75;2.40;;;26.10;55.30;;;;;;4977226;28;20230;-79
2023/05/19 09:31:18;;;;;;;4.35;2.30;;;25.90;53.70;;;;;;4987282;28;20301;-78
2023/05/19 09:33:44;;;;;;;5.05;1.83;;;25.70;53.70;;;;;;4991024;28;20785;-79
2023/05/19 09:36:11;;;;;;;5.30;2.10;;;25.40;54.60;;;;;;4994345;28;20237;-79
2023/05/19 09:38:38;;;;;;;5.22;1.75;;;25.20;54.20;;;;;;4989383;28;20293;-79
2023/05/19 09:41:06;;;;;;;3.30;1.80;;;25.10;54.70;;;;;;4988972;28;20869;-79
2023/05/19 09:43:35;;;;;;;5.03;2.10;;;25.00;54.90;;;;;;4988139;28;20234;-79
2023/05/19 09:46:04;;;;;;;8.13;2.20;;;25.10;54.90;;;;;;4988603;28;20237;-78
2023/05/19 09:48:31;;;;;;;6.47;1.92;;;25.30;55.20;;;;;;5008148;28;20260;-79
2023/05/19 09:50:57;;;;;;;5.43;2.53;;;25.50;55.80;;;;;;4990403;28;20326;-79
2023/05/19 09:53:24;;;;;;;3.88;2.10;;;25.70;55.70;;;;;;4982143;28;20314;-79
2023/05/19 09:55:56;;;;;;;6.97;2.28;;;25.80;54.80;;;;;;4988088;28;20280;-79
2023/05/19 09:58:23;;;;;;;6.10;2.40;;;25.90;53.30;;;;;;4985876;28;20621;-79
2023/05/19 10:00:53;;;;;;;7.35;2.05;;;25.70;53.10;;;;;;4990445;28;20298;-79
2023/05/19 10:03:22;;;;;;;5.22;2.10;;;25.50;52.90;;;;;;4989273;28;20780;-79
2023/05/19 10:05:49;;;;;;;6.35;1.90;;;25.30;52.90;;;;;;4993113;28;20712;-79
2023/05/19 10:08:17;;;;;;;5.68;3.00;;;24.90;53.20;;;;;;4990932;28;20226;-79
2023/05/19 10:10:46;;;;;;;6.55;2.65;;;24.60;53.80;;;;;;4992289;28;20222;-79
2023/05/19 10:13:13;;;;;;;4.85;1.90;;;24.50;53.40;;;;;;4991443;28;20230;-79
2023/05/19 10:15:41;;;;;;;5.03;2.30;;;24.40;54.20;;;;;;4990222;28;20253;-79
2023/05/19 10:18:10;;;;;;;4.15;1.67;;;24.40;53.60;;;;;;4991836;28;20237;-79
2023/05/19 10:20:37;;;;;;;4.10;1.77;;;24.50;53.90;;;;;;4986519;28;20236;-79
2023/05/19 10:23:04;;;;;;;5.78;1.85;;;24.70;53.40;;;;;;4985137;28;20237;-81
2023/05/19 10:25:32;;;;;;;6.03;1.90;;;24.80;53.10;;;;;;4984426;28;20230;-86
2023/05/19 10:28:04;;;;;;;6.00;1.80;;;25.00;53.70;;;;;;4985123;28;20222;-81
2023/05/19 10:30:36;;;;;;;6.93;2.20;;;25.30;53.70;;;;;;4983697;28;20719;-83
2023/05/19 10:33:06;;;;;;;4.10;1.67;;;25.60;53.50;;;;;;4979997;28;20747;-83
2023/05/19 10:36:09;;;;;;;7.03;1.85;;;25.80;51.80;;;;;;4984285;28;20257;-81
2023/05/19 10:38:42;;;;;;;3.63;1.40;;;26.00;51.70;;;;;;4982891;28;20861;-82
2023/05/19 10:41:16;;;;;;;4.78;1.90;;;26.00;51.30;;;;;;4982308;28;20311;-83
2023/05/19 10:43:54;;;;;;;7.45;1.80;;;26.00;51.30;;;;;;4986217;28;20230;-84
2023/05/19 10:46:25;;;;;;;4.75;1.70;;;26.00;50.70;;;;;;4981711;28;20221;-84
2023/05/19 10:48:52;;;;;;;4.75;1.50;;;26.10;50.70;;;;;;4984524;28;20225;-84
2023/05/19 10:51:20;;;;;;;5.32;2.25;;;26.20;51.10;;;;;;4982698;28;20222;-82
2023/05/19 10:53:48;;;;;;;4.15;1.73;;;26.30;50.70;;;;;;4977631;28;20779;-82
2023/05/19 10:56:32;;;;;;;5.15;2.05;;;26.30;49.80;;;;;;4982283;28;20818;-82
2023/05/19 10:58:59;;;;;;;5.32;2.10;;;26.30;49.40;;;;;;4981432;28;20293;-82
2023/05/19 11:01:31;;;;;;;5.32;1.67;;;26.10;49.00;;;;;;4978620;28;20224;-82
2023/05/19 11:04:04;;;;;;;6.93;1.80;;;26.00;49.50;;;;;;4985261;28;20273;-82
2023/05/19 11:06:34;;;;;;;4.50;1.67;;;25.80;49.50;;;;;;4984112;28;20234;-82
2023/05/19 11:09:09;;;;;;;4.55;1.63;;;25.70;49.50;;;;;;4978957;28;20242;-84
2023/05/19 11:11:45;;;;;;;6.45;2.22;;;25.70;49.00;;;;;;4985801;28;20735;-84
2023/05/19 11:14:12;;;;;;;3.42;1.52;;;25.60;49.50;;;;;;4982258;28;20229;-83
2023/05/19 11:16:41;;;;;;;4.32;1.83;;;25.60;49.10;;;;;;4983096;28;20240;-83
2023/05/19 11:19:09;;;;;;;3.88;1.65;;;25.50;48.90;;;;;;4983526;28;20222;-84
2023/05/19 11:21:49;;;;;;;6.47;1.70;;;25.30;49.50;;;;;;4984228;28;20245;-84
2023/05/19 11:24:34;;;;;;;3.97;1.40;;;25.30;49.90;;;;;;4977837;28;20218;-86
2023/05/19 11:27:21;;;;;;;6.50;1.67;;;25.30;49.60;;;;;;4982038;28;20227;-84
2023/05/19 11:29:48;;;;;;;4.05;1.45;;;25.50;49.90;;;;;;4992559;28;20227;-84
2023/05/19 11:32:15;;;;;;;4.93;1.80;;;25.70;49.80;;;;;;4985371;28;20652;-84
2023/05/19 11:34:43;;;;;;;5.60;2.05;;;25.80;49.80;;;;;;4977447;28;20226;-84
2023/05/19 11:37:12;;;;;;;3.88;1.38;;;25.90;48.60;;;;;;4986915;28;20218;-84
2023/05/19 11:39:39;;;;;;;5.47;1.50;;;25.90;49.10;;;;;;4981649;28;20254;-84
2023/05/19 11:42:06;;;;;;;5.57;1.80;;;25.80;49.30;;;;;;4981643;28;20216;-82
2023/05/19 11:44:33;;;;;;;4.03;1.45;;;25.80;49.60;;;;;;4988161;28;20317;-83
2023/05/19 11:47:00;;;;;;;3.80;1.70;;;25.90;50.10;;;;;;4986642;28;20230;-82
2023/05/19 11:49:29;;;;;;;4.95;1.83;;;26.20;50.30;;;;;;4985759;28;20222;-82
2023/05/19 11:51:56;;;;;;;3.63;1.60;;;26.30;48.80;;;;;;4982891;28;20225;-82
2023/05/19 11:54:30;;;;;;;4.32;1.77;;;26.50;48.80;;;;;;4985547;28;20289;-82
2023/05/19 11:56:57;;;;;;;4.00;1.77;;;26.40;48.70;;;;;;4980002;28;20240;-82
2023/05/19 11:59:29;;;;;;;5.00;1.80;;;26.20;48.20;;;;;;4983219;28;21260;-83
2023/05/19 12:01:56;;;;;;;5.07;1.88;;;26.10;48.20;;;;;;4988470;28;20272;-82
2023/05/19 12:04:23;;;;;;;7.80;2.20;;;25.90;48.00;;;;;;4987237;28;20229;-82
2023/05/19 12:06:51;;;;;;;5.68;1.80;;;25.70;47.80;;;;;;4983362;28;20236;-82
2023/05/19 12:09:18;;;;;;;4.47;1.88;;;25.50;47.30;;;;;;4986956;28;20214;-82
2023/05/19 12:11:47;;;;;;;4.35;1.73;;;25.30;48.40;;;;;;4981395;28;20240;-81
2023/05/19 12:14:14;;;;;;;4.13;1.63;;;25.20;48.80;;;;;;4984050;28;20229;-83
2023/05/19 12:16:42;;;;;;;5.10;1.85;;;25.30;49.70;;;;;;4984441;28;20236;-82
2023/05/19 12:19:09;;;;;;;4.70;1.80;;;25.30;49.40;;;;;;4988881;28;20218;-82
2023/05/19 12:21:36;;;;;;;3.97;1.55;;;25.40;49.10;;;;;;4985916;28;20230;-83
2023/05/19 12:24:04;;;;;;;4.07;1.77;;;25.50;48.80;;;;;;4982844;28;20226;-82
2023/05/19 12:26:31;;;;;;;5.10;2.13;;;25.50;48.90;;;;;;5002826;28;20321;-82
2023/05/19 12:28:59;;;;;;;2.33;1.55;;;25.60;48.00;;;;;;4986537;28;20228;-82
2023/05/19 12:31:26;;;;;;;2.95;1.65;;;25.60;48.60;;;;;;4993418;28;20226;-82
2023/05/19 12:33:53;;;;;;;5.25;1.75;;;25.60;48.10;;;;;;4981883;28;20293;-82
2023/05/19 12:36:21;;;;;;;4.18;1.67;;;25.70;48.30;;;;;;4985763;28;20226;-83
2023/05/19 12:38:53;;;;;;;3.85;1.85;;;25.70;47.60;;;;;;4983337;28;20233;-83
2023/05/19 12:41:19;;;;;;;7.63;2.13;;;25.60;46.70;;;;;;4983696;28;20224;-82
2023/05/19 12:43:46;;;;;;;6.57;1.80;;;25.40;47.40;;;;;;4974251;28;20298;-82
2023/05/19 12:46:15;;;;;;;5.45;1.70;;;25.30;47.80;;;;;;4980830;28;20655;-82
2023/05/19 12:48:43;;;;;;;5.15;1.80;;;25.20;47.10;;;;;;4983071;28;20222;-82
2023/05/19 12:51:10;;;;;;;5.57;2.13;;;25.00;47.70;;;;;;4981833;28;20304;-82
2023/05/19 12:53:37;;;;;;;3.85;1.75;;;24.80;47.40;;;;;;4976477;28;20686;-81
2023/05/19 12:56:11;;;;;;;5.57;1.75;;;24.60;48.10;;;;;;4985607;28;20233;-82
2023/05/19 12:58:38;;;;;;;4.30;1.67;;;24.40;47.70;;;;;;4979133;28;20688;-82